createdAt,value
2022-11-23T00:00:39.914Z,54.53
2022-11-23T00:03:32.389Z,50.28
2022-11-23T00:06:05.326Z,52.15
2022-11-23T00:08:37.913Z,44.50
2022-11-23T00:11:10.946Z,55.80
2022-11-23T00:13:43.720Z,67.28
2022-11-23T00:16:18.490Z,62.80
2022-11-23T00:18:55.036Z,56.38
2022-11-23T00:21:28.963Z,58.50
2022-11-23T00:24:01.757Z,66.35
2022-11-23T00:26:34.819Z,45.88
2022-11-23T00:29:07.489Z,50.83
2022-11-23T00:31:40.383Z,65.82
2022-11-23T00:34:13.123Z,42.10
2022-11-23T00:36:46.397Z,65.28
2022-11-23T00:39:19.192Z,71.72
2022-11-23T00:41:52.356Z,66.13
2022-11-23T00:44:24.974Z,52.90
2022-11-23T00:46:58.983Z,68.15
2022-11-23T00:49:33.008Z,57.33
2022-11-23T00:52:06.090Z,55.35
2022-11-23T00:54:38.812Z,46.70
2022-11-23T00:57:12.839Z,57.38
2022-11-23T00:59:45.555Z,56.90
2022-11-23T01:02:18.379Z,63.65
2022-11-23T01:04:51.387Z,50.25
2022-11-23T01:07:24.570Z,60.90
2022-11-23T01:09:57.559Z,43.92
2022-11-23T01:12:30.501Z,37.08
2022-11-23T01:15:03.008Z,55.10
2022-11-23T01:17:35.942Z,48.40
2022-11-23T01:20:09.420Z,73.00
2022-11-23T01:22:45.971Z,56.33
2022-11-23T01:25:18.515Z,58.00
2022-11-23T01:27:51.499Z,53.70
2022-11-23T01:30:26.717Z,71.20
2022-11-23T01:32:59.553Z,57.80
2022-11-23T01:35:32.145Z,68.05
2022-11-23T01:38:05.626Z,59.10
2022-11-23T01:40:42.358Z,71.78
2022-11-23T01:43:16.597Z,77.97
2022-11-23T01:45:58.613Z,64.78
2022-11-23T01:48:34.468Z,74.45
2022-11-23T01:51:09.036Z,72.32
2022-11-23T01:53:42.697Z,72.97
2022-11-23T01:56:17.668Z,80.88
2022-11-23T01:58:52.657Z,56.15
2022-11-23T02:01:25.942Z,50.13
2022-11-23T02:04:02.320Z,63.67
2022-11-23T02:06:35.439Z,62.25
2022-11-23T02:09:08.609Z,66.20
2022-11-23T02:11:41.079Z,52.15
2022-11-23T02:14:16.782Z,61.95
2022-11-23T02:16:51.996Z,68.07
2022-11-23T02:19:43.270Z,54.97
2022-11-23T02:22:20.580Z,58.00
2022-11-23T02:24:55.336Z,55.97
2022-11-23T02:27:30.627Z,68.88
2022-11-23T02:30:04.196Z,41.80
2022-11-23T02:32:37.744Z,47.08
2022-11-23T02:35:11.871Z,40.75
2022-11-23T02:37:44.463Z,49.58
2022-11-23T02:40:23.711Z,51.85
2022-11-23T02:45:47.451Z,34.35
2022-11-23T02:48:24.903Z,44.10
2022-11-23T02:50:58.046Z,40.08
2022-11-23T02:53:30.906Z,29.95
2022-11-23T02:56:04.493Z,34.03
2022-11-23T02:58:37.142Z,33.42
2022-11-23T03:01:12.755Z,34.70
2022-11-23T03:03:45.299Z,30.10
2022-11-23T03:06:18.203Z,28.92
2022-11-23T03:08:50.906Z,37.55
2022-11-23T03:11:23.849Z,42.13
2022-11-23T03:13:56.642Z,34.33
2022-11-23T03:16:30.088Z,32.97
2022-11-23T03:19:03.406Z,29.77
2022-11-23T03:21:37.642Z,38.50
2022-11-23T03:24:13.094Z,51.55
2022-11-23T03:26:46.477Z,36.70
2022-11-23T03:29:26.773Z,32.15
2022-11-23T03:32:02.113Z,31.02
2022-11-23T03:34:35.252Z,27.63
2022-11-23T03:37:09.331Z,30.23
2022-11-23T03:42:39.874Z,25.38
2022-11-23T03:45:12.512Z,41.13
2022-11-23T03:47:46.499Z,40.22
2022-11-23T03:50:19.558Z,31.85
2022-11-23T03:52:52.578Z,36.25
2022-11-23T03:55:25.774Z,35.33
2022-11-23T03:58:01.623Z,39.38
2022-11-23T13:48:54.874Z,36.15
2022-11-23T13:51:25.310Z,35.63
2022-11-23T13:53:59.863Z,33.67
2022-11-23T13:56:32.951Z,35.95
2022-11-23T13:59:25.256Z,39.53
2022-11-23T14:02:02.815Z,35.83
2022-11-23T14:04:41.110Z,29.50
2022-11-23T14:07:23.406Z,28.10
2022-11-23T14:09:59.339Z,30.27
2022-11-23T14:12:50.527Z,23.75
2022-11-23T14:15:24.290Z,31.05
2022-11-23T14:18:16.169Z,28.55
2022-11-23T14:21:07.426Z,30.87
2022-11-23T14:23:49.273Z,31.30
2022-11-23T14:26:36.984Z,29.50
2022-11-23T14:29:20.882Z,31.67
2022-11-23T14:31:59.459Z,27.83
2022-11-23T14:34:43.207Z,26.17
2022-11-23T14:37:33.800Z,36.00
2022-11-23T14:40:18.159Z,46.77
2022-11-23T14:42:54.978Z,50.50
2022-11-23T14:45:29.278Z,59.55
2022-11-23T14:48:21.344Z,39.72
2022-11-23T14:50:59.148Z,50.00
2022-11-23T14:53:35.894Z,34.95
2022-11-23T14:56:20.785Z,67.68
2022-11-23T14:58:54.366Z,59.10
2022-11-23T15:01:28.551Z,56.03
2022-11-23T15:04:08.034Z,113.00
2022-11-23T15:06:45.979Z,53.28
2022-11-23T15:09:22.250Z,60.90
2022-11-23T15:12:06.426Z,58.55
2022-11-23T15:14:43.759Z,155.00
2022-11-23T15:17:18.285Z,326.80
2022-11-23T15:19:58.282Z,301.65
2022-11-23T15:22:32.046Z,124.30
2022-11-23T15:25:10.685Z,96.88
2022-11-23T15:27:44.219Z,85.83
2022-11-23T15:30:19.612Z,65.22
2022-11-23T15:32:59.800Z,49.08
2022-11-23T15:35:33.958Z,50.67
2022-11-23T15:38:17.776Z,78.90
2022-11-23T15:40:53.246Z,56.35
2022-11-23T15:43:26.131Z,57.75
2022-11-23T15:46:01.593Z,69.07
2022-11-23T15:48:43.048Z,99.05
2022-11-23T15:51:26.227Z,76.25
2022-11-23T15:54:01.506Z,78.03
2022-11-23T15:56:34.942Z,55.08
2022-11-23T15:59:26.124Z,51.30
2022-11-23T16:02:00.002Z,47.45
2022-11-23T16:04:36.451Z,53.97
2022-11-23T16:07:23.258Z,58.07
2022-11-23T16:10:17.069Z,48.58
2022-11-23T16:12:51.626Z,45.70
2022-11-23T16:15:32.738Z,57.08
2022-11-23T16:18:07.010Z,47.15
2022-11-23T16:20:48.225Z,46.72
2022-11-23T16:23:22.800Z,47.22
2022-11-23T16:25:55.765Z,47.75
2022-11-23T16:28:31.555Z,53.55
2022-11-23T16:31:04.886Z,47.75
2022-11-23T16:33:37.660Z,44.08
2022-11-23T16:36:10.619Z,48.67
2022-11-23T16:38:43.219Z,45.17
2022-11-23T16:41:16.098Z,52.67
2022-11-23T16:43:54.656Z,49.33
2022-11-23T16:46:27.658Z,47.55
2022-11-23T16:49:00.965Z,53.40
2022-11-23T16:51:34.133Z,52.88
2022-11-23T16:54:13.497Z,43.08
2022-11-23T16:56:47.105Z,51.08
2022-11-23T16:59:20.038Z,52.80
2022-11-23T17:01:57.291Z,53.75
2022-11-23T17:04:31.625Z,51.00
2022-11-23T17:07:04.856Z,59.30
2022-11-23T17:09:37.464Z,50.80
2022-11-23T17:12:14.858Z,53.73
2022-11-23T17:14:48.389Z,45.60
2022-11-23T17:17:22.700Z,52.60
2022-11-23T17:19:58.534Z,46.88
2022-11-23T17:22:34.156Z,48.45
2022-11-23T17:25:13.046Z,49.40
2022-11-23T17:27:48.013Z,48.55
2022-11-23T17:30:21.720Z,52.17
2022-11-23T17:32:54.913Z,54.73
2022-11-23T17:35:27.490Z,45.77
2022-11-23T17:38:00.836Z,48.80
2022-11-23T17:40:33.809Z,45.92
2022-11-23T17:43:06.866Z,51.10
2022-11-23T17:45:39.572Z,46.55
2022-11-23T17:48:13.358Z,41.55
2022-11-23T17:50:47.921Z,42.00
2022-11-23T17:53:24.221Z,42.67
2022-11-23T17:55:58.243Z,40.88
2022-11-23T17:58:31.323Z,50.50
2022-11-23T18:01:04.063Z,48.72
2022-11-23T18:03:37.066Z,40.53
2022-11-23T18:06:20.541Z,42.58
2022-11-23T18:08:53.630Z,43.70
2022-11-23T18:11:26.348Z,41.65
2022-11-23T18:13:59.813Z,38.70
2022-11-23T18:16:32.484Z,42.88
2022-11-23T18:19:06.189Z,37.10
2022-11-23T18:21:39.208Z,38.22
2022-11-23T18:24:12.227Z,42.33
2022-11-23T18:26:44.913Z,45.20
2022-11-23T18:29:18.027Z,34.78
2022-11-23T18:31:50.615Z,36.42
2022-11-23T18:34:23.640Z,39.10
2022-11-23T18:36:56.488Z,40.78
2022-11-23T18:39:29.462Z,40.40
2022-11-23T18:42:05.758Z,45.05
2022-11-23T18:44:39.433Z,44.40
2022-11-23T18:47:12.024Z,48.92
2022-11-23T18:49:45.004Z,44.33
2022-11-23T18:52:17.611Z,43.33
2022-11-23T18:54:50.798Z,44.78
2022-11-23T18:57:23.388Z,54.42
2022-11-23T18:59:58.650Z,52.00
2022-11-23T19:02:32.295Z,37.45
2022-11-23T19:05:05.591Z,44.58
2022-11-23T19:07:38.462Z,42.75
2022-11-23T19:10:11.488Z,47.97
2022-11-23T19:12:44.400Z,47.92
2022-11-23T19:15:17.383Z,46.85
2022-11-23T19:17:50.463Z,57.05
2022-11-23T19:20:24.025Z,51.70
2022-11-23T19:22:56.824Z,51.45
2022-11-23T19:25:30.098Z,51.63
2022-11-23T19:28:02.700Z,55.50
2022-11-23T19:30:35.624Z,52.97
2022-11-23T19:33:08.108Z,50.45
2022-11-23T19:35:40.976Z,52.03
2022-11-23T19:38:15.770Z,56.80
2022-11-23T19:40:54.065Z,57.65
2022-11-23T19:43:26.687Z,68.85
2022-11-23T19:46:01.047Z,55.60
2022-11-23T19:48:34.292Z,61.58
2022-11-23T19:51:08.839Z,59.95
2022-11-23T19:53:42.096Z,55.78
2022-11-23T19:56:16.326Z,56.30
2022-11-23T19:58:52.572Z,58.88
2022-11-23T20:01:27.723Z,60.75
2022-11-23T20:04:09.759Z,57.97
2022-11-23T20:06:43.151Z,49.63
2022-11-23T20:09:19.759Z,46.17
2022-11-23T20:11:52.804Z,50.17
2022-11-23T20:14:25.515Z,55.08
2022-11-23T20:16:58.636Z,50.95
2022-11-23T20:19:31.479Z,50.85
2022-11-23T20:22:04.627Z,48.30
2022-11-23T20:24:37.283Z,46.92
2022-11-23T20:27:10.187Z,47.03
2022-11-23T20:29:42.899Z,38.40
2022-11-23T20:32:15.903Z,38.72
2022-11-23T20:34:48.594Z,33.10
2022-11-23T20:37:21.515Z,38.08
2022-11-23T20:39:54.274Z,39.67
2022-11-23T20:42:27.272Z,40.20
2022-11-23T20:44:59.873Z,40.35
2022-11-23T20:47:33.099Z,34.72
2022-11-23T20:50:05.974Z,43.10
2022-11-23T20:52:38.977Z,37.22
2022-11-23T20:55:12.708Z,37.70
2022-11-23T20:57:45.718Z,51.45
2022-11-23T21:00:19.266Z,40.80
2022-11-23T21:02:52.866Z,40.60
2022-11-23T21:05:25.843Z,38.15
2022-11-23T21:07:58.905Z,44.92
2022-11-23T21:10:49.611Z,39.47
2022-11-23T21:13:49.499Z,39.20
2022-11-23T21:16:22.804Z,46.15
2022-11-23T21:18:55.899Z,42.03
2022-11-23T21:21:29.483Z,44.38
2022-11-23T21:24:03.875Z,51.80
2022-11-23T21:26:36.429Z,44.20
2022-11-23T21:29:11.613Z,57.58
2022-11-23T21:31:45.760Z,50.63
2022-11-23T21:34:18.748Z,44.95
2022-11-23T21:36:51.957Z,45.63
2022-11-23T21:39:25.229Z,44.38
2022-11-23T21:41:58.091Z,42.27
2022-11-23T21:44:31.420Z,45.90
2022-11-23T21:47:04.291Z,50.57
2022-11-23T21:49:37.426Z,52.83
2022-11-23T21:52:10.012Z,51.28
2022-11-23T21:54:48.598Z,50.50
2022-11-23T21:57:22.154Z,53.75
2022-11-23T21:59:55.130Z,50.13
2022-11-23T22:06:13.500Z,44.05
2022-11-23T22:08:53.294Z,41.23
2022-11-23T22:11:27.478Z,41.28
2022-11-23T22:14:22.427Z,48.30
2022-11-23T22:16:57.080Z,53.13
2022-11-23T22:19:30.583Z,43.70
2022-11-23T22:22:04.408Z,42.92
2022-11-23T22:24:37.476Z,47.25
2022-11-23T22:27:10.159Z,38.47
2022-11-23T22:29:43.340Z,40.70
2022-11-23T22:32:16.113Z,46.53
2022-11-23T22:34:49.302Z,42.97
2022-11-23T22:37:22.168Z,36.08
2022-11-23T22:39:55.351Z,46.05
2022-11-23T22:42:28.142Z,42.57
2022-11-23T22:45:01.460Z,42.00
2022-11-23T22:47:34.180Z,39.80
2022-11-23T22:50:07.748Z,36.40
2022-11-23T22:52:40.517Z,41.30
2022-11-23T22:55:13.609Z,44.33
2022-11-23T22:57:46.383Z,40.53
2022-11-23T23:00:19.743Z,40.08
2022-11-23T23:02:52.662Z,43.83
2022-11-23T23:05:25.969Z,41.63
2022-11-23T23:07:58.722Z,47.28
2022-11-23T23:10:31.784Z,37.97
2022-11-23T23:13:04.513Z,45.43
2022-11-23T23:15:39.116Z,37.00
2022-11-23T23:18:12.398Z,41.33
2022-11-23T23:20:45.625Z,41.13
2022-11-23T23:23:18.773Z,45.97
2022-11-23T23:25:54.472Z,38.05
2022-11-23T23:28:27.293Z,37.88
2022-11-23T23:31:04.512Z,34.88
2022-11-23T23:33:37.281Z,31.80
2022-11-23T23:36:12.781Z,44.05
2022-11-23T23:38:45.951Z,46.78
2022-11-23T23:41:19.552Z,42.53
2022-11-23T23:43:52.922Z,49.50
2022-11-23T23:46:28.650Z,193.20
2022-11-23T23:49:02.752Z,131.57
2022-11-23T23:51:36.687Z,209.00
2022-11-23T23:54:09.534Z,134.55
2022-11-23T23:56:43.901Z,124.18
2022-11-23T23:59:16.754Z,52.75
